createdAt,value
2023-01-22T00:01:44.692Z,0.65
2023-01-22T00:04:56.867Z,0.65
2023-01-22T00:08:09.181Z,0.60
2023-01-22T00:11:22.730Z,0.57
2023-01-22T00:14:34.801Z,0.60
2023-01-22T00:17:46.827Z,0.57
2023-01-22T00:21:00.549Z,0.56
2023-01-22T00:24:14.307Z,0.53
2023-01-22T00:27:26.310Z,0.55
2023-01-22T00:30:38.365Z,0.52
2023-01-22T00:33:52.277Z,0.47
2023-01-22T00:37:04.797Z,0.44
2023-01-22T00:40:20.245Z,0.44
2023-01-22T00:43:33.599Z,0.41
2023-01-22T00:46:45.962Z,0.40
2023-01-22T00:49:57.984Z,0.42
2023-01-22T00:53:09.855Z,0.43
2023-01-22T00:56:23.047Z,0.42
2023-01-22T00:59:35.476Z,0.38
2023-01-22T01:02:59.014Z,0.43
2023-01-22T01:06:15.036Z,0.43
2023-01-22T01:09:27.213Z,0.38
2023-01-22T01:12:39.223Z,0.38
2023-01-22T01:15:51.258Z,0.44
2023-01-22T01:19:06.384Z,0.47
2023-01-22T01:22:18.300Z,0.46
2023-01-22T01:25:30.255Z,0.44
2023-01-22T01:28:45.867Z,0.40
2023-01-22T01:31:58.080Z,0.40
2023-01-22T01:35:11.570Z,0.37
2023-01-22T01:38:24.671Z,0.37
2023-01-22T01:41:36.804Z,0.31
2023-01-22T01:44:52.861Z,0.29
2023-01-22T01:48:15.221Z,0.30
2023-01-22T01:51:32.119Z,0.20
2023-01-22T01:54:46.069Z,0.25
2023-01-22T01:57:59.706Z,0.34
2023-01-22T02:01:17.446Z,0.33
2023-01-22T02:04:29.997Z,0.35
2023-01-22T02:07:42.474Z,0.35
2023-01-22T02:10:54.608Z,0.31
2023-01-22T02:14:12.470Z,0.33
2023-01-22T02:17:27.695Z,0.28
2023-01-22T02:20:42.769Z,0.31
2023-01-22T02:23:54.972Z,0.32
2023-01-22T02:27:06.798Z,0.32
2023-01-22T02:30:21.638Z,0.34
2023-01-22T02:33:33.697Z,0.37
2023-01-22T02:36:47.643Z,0.32
2023-01-22T02:40:00.318Z,0.33
2023-01-22T02:43:12.310Z,0.33
2023-01-22T02:46:27.296Z,0.36
2023-01-22T02:49:39.486Z,0.31
2023-01-22T02:52:51.792Z,0.35
2023-01-22T02:56:04.147Z,0.34
2023-01-22T02:59:16.841Z,0.29
2023-01-22T03:02:29.071Z,0.32
2023-01-22T03:05:42.156Z,0.27
2023-01-22T03:08:54.881Z,0.36
2023-01-22T03:12:07.292Z,0.31
2023-01-22T03:15:35.808Z,0.39
2023-01-22T03:19:03.104Z,0.37
2023-01-22T03:22:15.817Z,0.35
2023-01-22T03:25:28.063Z,0.34
2023-01-22T03:28:40.487Z,0.36
2023-01-22T03:31:52.853Z,0.37
2023-01-22T03:35:05.910Z,0.22
2023-01-22T03:38:19.854Z,0.31
2023-01-22T03:41:32.108Z,0.34
2023-01-22T03:44:44.270Z,0.32
2023-01-22T03:47:57.502Z,0.30
2023-01-22T03:51:19.497Z,0.26
2023-01-22T03:54:31.754Z,0.31
2023-01-22T03:57:45.096Z,0.29
2023-01-22T04:00:58.417Z,0.31
2023-01-22T04:04:12.372Z,0.30
2023-01-22T04:07:26.362Z,0.33
2023-01-22T04:10:38.441Z,0.27
2023-01-22T04:13:51.742Z,0.27
2023-01-22T04:17:05.591Z,0.30
2023-01-22T04:20:34.909Z,0.24
2023-01-22T04:24:04.129Z,0.27
2023-01-22T04:27:17.250Z,0.27
2023-01-22T04:30:31.253Z,0.23
2023-01-22T04:33:45.421Z,0.29
2023-01-22T04:37:02.143Z,0.29
2023-01-22T04:40:20.431Z,0.27
2023-01-22T04:43:33.933Z,0.25
2023-01-22T04:46:47.771Z,0.27
2023-01-22T04:49:59.885Z,0.20
2023-01-22T04:53:12.502Z,0.20
2023-01-22T04:56:24.865Z,0.22
2023-01-22T04:59:38.552Z,0.20
2023-01-22T05:02:51.445Z,0.21
2023-01-22T05:06:08.307Z,0.22
2023-01-22T05:09:22.830Z,0.22
2023-01-22T05:12:36.875Z,0.23
2023-01-22T05:15:49.002Z,0.23
2023-01-22T05:19:02.362Z,0.27
2023-01-22T05:22:16.404Z,0.27
2023-01-22T05:25:28.490Z,0.23
2023-01-22T05:28:42.264Z,0.23
2023-01-22T05:31:56.294Z,0.21
2023-01-22T05:35:17.464Z,0.28
2023-01-22T05:38:31.349Z,0.28
2023-01-22T05:41:43.831Z,0.24
2023-01-22T05:44:57.091Z,0.26
2023-01-22T05:48:11.043Z,0.25
2023-01-22T05:51:29.293Z,0.28
2023-01-22T05:54:43.881Z,0.30
2023-01-22T05:57:56.051Z,0.31
2023-01-22T06:01:09.415Z,0.32
2023-01-22T06:04:25.318Z,0.35
2023-01-22T06:07:39.021Z,0.34
2023-01-22T06:10:50.964Z,0.34
2023-01-22T06:14:04.268Z,0.35
2023-01-22T06:17:17.899Z,0.35
2023-01-22T06:20:32.264Z,0.35
2023-01-22T06:23:45.381Z,0.35
2023-01-22T06:26:58.303Z,0.38
2023-01-22T06:30:18.148Z,0.37
2023-01-22T06:33:30.919Z,0.34
2023-01-22T06:36:43.638Z,0.32
2023-01-22T06:39:56.464Z,0.32
2023-01-22T06:43:19.306Z,0.28
2023-01-22T06:46:33.825Z,0.34
2023-01-22T06:49:47.706Z,0.32
2023-01-22T06:52:59.686Z,0.35
2023-01-22T06:56:13.759Z,0.31
2023-01-22T06:59:26.186Z,0.37
2023-01-22T07:02:38.314Z,0.31
2023-01-22T07:05:50.415Z,0.30
2023-01-22T07:09:02.897Z,0.34
2023-01-22T07:12:15.324Z,0.36
2023-01-22T07:15:27.407Z,0.40
2023-01-22T07:18:39.314Z,0.45
2023-01-22T07:21:51.319Z,0.50
2023-01-22T07:25:03.450Z,0.53
2023-01-22T07:28:17.211Z,0.43
2023-01-22T07:31:29.335Z,0.47
2023-01-22T07:34:41.576Z,0.48
2023-01-22T07:37:59.224Z,0.46
2023-01-22T07:41:25.079Z,0.38
2023-01-22T07:44:27.176Z,0.48
2023-01-22T07:47:39.310Z,0.45
2023-01-22T07:50:51.491Z,0.44
2023-01-22T07:54:03.488Z,0.45
2023-01-22T07:57:16.854Z,0.49
2023-01-22T08:00:30.015Z,0.42
2023-01-22T08:03:42.507Z,0.46
2023-01-22T08:06:54.703Z,0.48
2023-01-22T08:10:07.124Z,0.50
2023-01-22T08:13:19.255Z,0.46
2023-01-22T08:16:31.341Z,0.47
2023-01-22T08:19:43.668Z,0.45
2023-01-22T08:22:56.041Z,0.51
2023-01-22T08:26:09.742Z,0.57
2023-01-22T08:29:21.928Z,0.55
2023-01-22T08:32:34.776Z,0.63
2023-01-22T08:35:47.973Z,0.65
2023-01-22T08:39:00.671Z,0.69
2023-01-22T08:42:12.950Z,0.67
2023-01-22T08:45:25.743Z,0.66
2023-01-22T08:48:40.046Z,0.66
2023-01-22T08:51:53.036Z,0.64
2023-01-22T08:55:06.825Z,0.63
2023-01-22T08:58:20.567Z,0.56
2023-01-22T09:01:32.553Z,0.67
2023-01-22T09:04:45.279Z,0.69
2023-01-22T09:07:57.379Z,0.75
2023-01-22T09:11:11.501Z,0.79
2023-01-22T09:14:23.971Z,0.68
2023-01-22T09:17:36.456Z,0.67
2023-01-22T09:20:50.824Z,0.73
2023-01-22T09:24:02.974Z,0.75
2023-01-22T09:27:15.136Z,0.78
2023-01-22T09:30:27.621Z,0.81
2023-01-22T09:33:39.781Z,0.78
2023-01-22T09:36:52.256Z,0.78
2023-01-22T09:40:04.464Z,0.78
2023-01-22T09:43:29.064Z,0.77
2023-01-22T09:46:47.797Z,0.78
2023-01-22T09:50:04.790Z,0.70
2023-01-22T09:53:18.983Z,0.82
2023-01-22T09:56:36.757Z,0.86
2023-01-22T09:59:55.564Z,0.90
2023-01-22T10:03:11.802Z,0.91
2023-01-22T10:06:29.886Z,0.93
2023-01-22T10:09:42.986Z,0.94
2023-01-22T10:13:02.459Z,1.00
2023-01-22T10:16:16.311Z,1.03
2023-01-22T10:19:33.913Z,1.00
2023-01-22T10:22:48.737Z,1.01
2023-01-22T10:26:05.350Z,1.00
2023-01-22T10:29:23.305Z,1.01
2023-01-22T10:32:37.112Z,1.02
2023-01-22T10:35:53.348Z,1.00
2023-01-22T10:39:17.288Z,1.05
2023-01-22T10:42:33.691Z,0.97
2023-01-22T10:45:56.255Z,1.01
2023-01-22T10:49:10.265Z,1.02
2023-01-22T10:52:31.737Z,1.02
2023-01-22T10:55:48.193Z,1.06
2023-01-22T10:59:01.121Z,1.08
2023-01-22T11:02:22.766Z,1.08
2023-01-22T11:05:39.654Z,1.08
2023-01-22T11:08:58.027Z,1.10
2023-01-22T11:12:16.979Z,1.14
2023-01-22T11:15:37.136Z,1.10
2023-01-22T11:18:56.150Z,1.15
2023-01-22T11:22:14.421Z,1.16
2023-01-22T11:25:27.004Z,1.18
2023-01-22T11:28:48.079Z,1.09
2023-01-22T11:32:22.244Z,1.12
2023-01-22T11:35:40.368Z,1.04
2023-01-22T11:38:58.133Z,1.15
2023-01-22T11:42:18.419Z,1.13
2023-01-22T11:45:56.893Z,1.11
2023-01-22T11:49:26.313Z,1.13
2023-01-22T11:52:49.327Z,1.16
2023-01-22T11:56:26.418Z,1.14
2023-01-22T12:00:06.061Z,1.18
2023-01-22T12:03:55.425Z,1.24
2023-01-22T12:07:29.424Z,1.18
2023-01-22T12:11:13.106Z,1.21
2023-01-22T12:14:41.492Z,1.17
2023-01-22T12:18:07.412Z,1.16
2023-01-22T12:21:27.369Z,1.17
2023-01-22T12:24:45.984Z,1.20
2023-01-22T12:28:03.851Z,1.09
2023-01-22T12:31:21.625Z,1.06
2023-01-22T12:34:38.959Z,1.05
2023-01-22T12:37:56.924Z,1.03
2023-01-22T12:41:28.764Z,1.05
2023-01-22T12:44:53.063Z,1.08
2023-01-22T12:48:11.771Z,1.09
2023-01-22T12:51:41.857Z,1.15
2023-01-22T12:55:01.319Z,1.16
2023-01-22T12:58:27.881Z,1.19
2023-01-22T13:01:43.864Z,1.22
2023-01-22T13:04:57.362Z,1.23
2023-01-22T13:08:25.456Z,1.21
2023-01-22T13:11:41.463Z,1.19
2023-01-22T13:14:55.316Z,1.16
2023-01-22T13:18:10.782Z,1.14
2023-01-22T13:21:29.691Z,1.15
2023-01-22T13:24:42.187Z,1.17
2023-01-22T13:27:54.431Z,1.18
2023-01-22T13:31:12.611Z,1.16
2023-01-22T13:34:24.966Z,1.19
2023-01-22T13:37:38.987Z,1.16
2023-01-22T13:40:57.840Z,1.16
2023-01-22T13:44:11.580Z,1.18
2023-01-22T13:47:39.770Z,1.14
2023-01-22T13:50:58.488Z,1.16
2023-01-22T13:54:12.734Z,1.22
2023-01-22T13:57:27.679Z,1.22
2023-01-22T14:00:41.927Z,1.31
2023-01-22T14:03:58.387Z,1.39
2023-01-22T14:07:13.310Z,1.45
2023-01-22T14:10:28.580Z,1.51
2023-01-22T14:13:50.954Z,1.52
2023-01-22T14:17:03.115Z,1.52
2023-01-22T14:20:18.035Z,1.52
2023-01-22T14:23:30.602Z,1.48
2023-01-22T14:26:42.871Z,1.49
2023-01-22T14:29:56.562Z,1.45
2023-01-22T14:33:10.496Z,1.46
2023-01-22T14:36:22.732Z,1.47
2023-01-22T14:39:37.680Z,1.40
2023-01-22T14:42:50.009Z,1.40
2023-01-22T14:46:02.096Z,1.37
2023-01-22T14:49:14.346Z,1.34
2023-01-22T14:52:26.396Z,1.36
2023-01-22T14:55:38.768Z,1.39
2023-01-22T14:58:51.224Z,1.36
2023-01-22T15:02:03.321Z,1.35
2023-01-22T15:05:17.891Z,1.37
2023-01-22T15:08:30.198Z,1.36
2023-01-22T15:11:42.214Z,1.35
2023-01-22T15:14:54.454Z,1.30
2023-01-22T15:18:06.664Z,1.32
2023-01-22T15:21:19.109Z,1.31
2023-01-22T15:24:31.242Z,1.37
2023-01-22T15:27:44.638Z,1.36
2023-01-22T15:30:57.622Z,1.35
2023-01-22T15:34:10.249Z,1.35
2023-01-22T15:37:23.948Z,1.35
2023-01-22T15:40:37.790Z,1.32
2023-01-22T15:43:50.967Z,1.32
2023-01-22T15:47:03.292Z,1.31
2023-01-22T15:50:20.489Z,1.29
2023-01-22T15:53:33.069Z,1.32
2023-01-22T15:56:46.101Z,1.32
2023-01-22T15:59:58.152Z,1.32
2023-01-22T16:03:11.988Z,1.34
2023-01-22T16:06:27.630Z,1.38
2023-01-22T16:09:39.926Z,1.40
2023-01-22T16:12:52.040Z,1.38
2023-01-22T16:16:09.729Z,1.39
2023-01-22T16:19:22.039Z,1.38
2023-01-22T16:22:34.312Z,1.33
2023-01-22T16:25:48.958Z,1.32
2023-01-22T16:29:03.921Z,1.33
2023-01-22T16:32:16.337Z,1.32
2023-01-22T16:35:28.551Z,1.31
2023-01-22T16:38:42.403Z,1.33
2023-01-22T16:41:57.261Z,1.34
2023-01-22T16:45:10.811Z,1.31
2023-01-22T16:48:22.899Z,1.32
2023-01-22T16:51:42.015Z,1.34
2023-01-22T16:54:54.395Z,1.34
2023-01-22T16:58:06.504Z,1.34
2023-01-22T17:01:20.572Z,1.30
2023-01-22T17:04:33.867Z,1.27
2023-01-22T17:07:46.200Z,1.30
2023-01-22T17:10:58.593Z,1.28
2023-01-22T17:14:10.999Z,1.30
2023-01-22T17:17:23.364Z,1.31
2023-01-22T17:20:35.727Z,1.30
2023-01-22T17:23:48.239Z,1.31
2023-01-22T17:27:02.708Z,1.34
2023-01-22T17:30:18.332Z,1.36
2023-01-22T17:33:30.851Z,1.37
2023-01-22T17:36:43.950Z,1.39
2023-01-22T17:39:56.254Z,1.38
2023-01-22T17:43:08.592Z,1.38
2023-01-22T17:46:23.900Z,1.38
2023-01-22T17:49:36.703Z,1.35
2023-01-22T17:52:48.857Z,1.39
2023-01-22T17:56:01.064Z,1.37
2023-01-22T17:59:14.603Z,1.40
2023-01-22T18:02:26.845Z,1.41
2023-01-22T18:05:40.288Z,1.42
2023-01-22T18:08:52.562Z,1.40
2023-01-22T18:12:05.100Z,1.41
2023-01-22T18:15:18.608Z,1.45
2023-01-22T18:18:31.009Z,1.43
2023-01-22T18:21:44.695Z,1.45
2023-01-22T18:24:58.504Z,1.46
2023-01-22T18:28:10.563Z,1.46
2023-01-22T18:31:26.015Z,1.43
2023-01-22T18:34:40.230Z,1.47
2023-01-22T18:37:54.500Z,1.51
2023-01-22T18:41:28.584Z,1.47
2023-01-22T18:44:41.749Z,1.47
2023-01-22T18:47:59.115Z,1.49
2023-01-22T18:51:13.634Z,1.46
2023-01-22T18:54:25.958Z,1.44
2023-01-22T19:01:22.798Z,1.40
2023-01-22T19:08:16.222Z,1.37
2023-01-22T19:11:36.683Z,1.38
2023-01-22T19:14:50.956Z,1.35
2023-01-22T19:18:03.386Z,1.36
2023-01-22T19:21:40.360Z,1.34
2023-01-22T19:24:52.794Z,1.40
2023-01-22T19:31:50.725Z,1.39
2023-01-22T19:35:03.643Z,1.43
2023-01-22T19:42:00.423Z,1.44
2023-01-22T19:45:14.443Z,1.44
2023-01-22T19:48:26.948Z,1.46
2023-01-22T19:51:39.866Z,1.48
2023-01-22T19:54:55.932Z,1.45
2023-01-22T19:58:08.979Z,1.44
2023-01-22T20:01:23.104Z,1.48
2023-01-22T20:04:45.775Z,1.48
2023-01-22T20:07:57.853Z,1.51
2023-01-22T20:11:12.146Z,1.54
2023-01-22T20:18:04.361Z,1.54
2023-01-22T20:21:17.474Z,1.53
2023-01-22T20:24:30.020Z,1.54
2023-01-22T20:27:42.419Z,1.56
2023-01-22T20:31:04.939Z,1.60
2023-01-22T20:34:17.240Z,1.60
2023-01-22T20:37:29.476Z,1.59
2023-01-22T20:40:45.748Z,1.61
2023-01-22T20:43:59.137Z,1.63
2023-01-22T20:47:11.260Z,1.56
2023-01-22T20:50:24.123Z,1.55
2023-01-22T20:53:37.052Z,1.54
2023-01-22T20:56:52.166Z,1.57
2023-01-22T21:00:04.818Z,1.53
2023-01-22T21:03:17.009Z,1.51
2023-01-22T21:06:30.369Z,1.54
2023-01-22T21:09:43.235Z,1.56
2023-01-22T21:12:55.264Z,1.52
2023-01-22T21:16:14.699Z,1.51
2023-01-22T21:19:29.774Z,1.43
2023-01-22T21:22:42.495Z,1.41
2023-01-22T21:25:54.477Z,1.39
2023-01-22T21:29:11.098Z,1.37
2023-01-22T21:32:23.394Z,1.37
2023-01-22T21:35:35.380Z,1.39
2023-01-22T21:38:48.438Z,1.42
2023-01-22T21:42:03.267Z,1.45
2023-01-22T21:45:31.733Z,1.44
2023-01-22T21:48:43.784Z,1.42
2023-01-22T21:51:58.883Z,1.40
2023-01-22T21:55:12.876Z,1.47
2023-01-22T21:58:25.013Z,1.45
2023-01-22T22:01:37.034Z,1.46
2023-01-22T22:04:50.844Z,1.41
2023-01-22T22:08:03.905Z,1.42
2023-01-22T22:11:17.404Z,1.45
2023-01-22T22:14:30.117Z,1.42
2023-01-22T22:32:47.646Z,1.46
2023-01-22T22:39:56.496Z,1.48
2023-01-22T22:54:30.491Z,1.51
2023-01-22T22:57:42.365Z,1.53
2023-01-22T23:05:16.244Z,1.54
2023-01-22T23:17:23.405Z,1.57
2023-01-22T23:38:49.059Z,1.63
2023-01-22T23:46:00.718Z,1.56
